APL Norway — A8NC4 — position and weather

sailwx.info

Track history (hours):
 
Tides and Currents Weather Stations Pressure Air Temp Water Temp Dewpoint Dewpoint Depression Visibility Wind Speed Wind Dir Waves Ship Positions

APL Norway

Last reported at 2015-Feb-13 19:13 UTC. Time now 2015-Mar-04 20:22 UTC.
Position N 24°58' E 120°45'.
Warning: this ship's position is 19 days out of date.

Length 295 m; draft 12.9 m.

Type: Cargo ship. MMSI: 636013456.

Date/timePositionNaut miles runAvg speedWind from/ knotsBaromVisibWave heightAir tempDewpointWater temp
2015-Feb-13 19:13N 24°58' E 120°45'1818.2
2015-Feb-13 18:12N 24°44' E 120°33'1218.3
2015-Feb-13 17:33N 24°34' E 120°25'2218.3
2015-Feb-13 16:22N 24°17' E 120°10'1518.5
2015-Feb-13 15:32N 24°05' E 120°00'1717.1
2015-Feb-13 14:32N 23°49' E 119°53'2317.5
2015-Feb-13 13:15N 23°26' E 119°53'1217.0
2015-Feb-13 12:32N 23°14' E 119°52'2317.4
2015-Feb-13 11:14N 22°52' E 119°59'1217.5
2015-Feb-13 10:33N 22°42' E 120°06'1414.2
2015-Feb-13 09:33N 22°33' E 120°18'2 1.5
2015-Feb-13 08:30N 22°34' E 120°19'0 0.0
2015-Feb-13 07:30N 22°34' E 120°19'0 0.0
2015-Feb-13 06:12N 22°34' E 120°19'0 0.0
2015-Feb-13 05:30N 22°34' E 120°19'0 0.0
2015-Feb-13 04:30N 22°34' E 120°19'0 0.0
2015-Feb-13 03:18N 22°34' E 120°19'0 0.0
2015-Feb-13 02:24N 22°34' E 120°19'0 0.0
2015-Feb-13 00:30N 22°34' E 120°19'0 0.0
2015-Feb-12 23:24N 22°34' E 120°19'0 0.0
2015-Feb-12 22:30N 22°34' E 120°19'0 0.0
2015-Feb-12 21:30N 22°34' E 120°19'0 0.0
2015-Feb-12 20:18N 22°34' E 120°19'0 0.0
2015-Feb-12 18:33N 22°34' E 120°19'6 5.9
2015-Feb-12 17:33N 22°32' E 120°13'1313.2
2015-Feb-12 16:33N 22°30' E 119°59'1818.4
2015-Feb-12 15:33N 22°29' E 119°39'1818.0
2015-Feb-12 14:33N 22°27' E 119°20'1817.8
2015-Feb-12 13:33N 22°25' E 119°00'4417.7
2015-Feb-12 11:05N 22°22' E 118°13'1018.2
2015-Feb-12 10:32N 22°21' E 118°03'1717.2
2015-Feb-12 09:33N 22°21' E 117°44'1817.6
2015-Feb-12 08:32N 22°21' E 117°25'15917.6
2015-Feb-11 23:29N 22°07' E 114°33'1717.4
2015-Feb-11 22:31N 22°07' E 114°15'1313.3
2015-Feb-11 21:33N 22°17' E 114°06'1110.4
2015-Feb-11 20:31N 22°21' E 113°55'7 0.5
2015-Feb-11 06:30N 22°28' E 113°53'0 0.0
2015-Feb-11 05:30N 22°28' E 113°53'0 0.0
2015-Feb-11 04:24N 22°28' E 113°53'0 0.0
2015-Feb-11 03:30N 22°28' E 113°53'0 0.0
2015-Feb-11 02:30N 22°28' E 113°53'0 0.0
2015-Feb-11 01:30N 22°28' E 113°53'0 0.1
2015-Feb-10 23:32N 22°28' E 113°53'15 7.7
2015-Feb-10 21:34N 22°19' E 114°06'1110.2
2015-Feb-10 20:31N 22°10' E 114°13'9 9.0
2015-Feb-10 19:33N 22°09' E 114°22'1313.0
2015-Feb-10 18:33N 21°56' E 114°23'  
2015-Feb-07 15:26N 01°16' E 104°16'1516.8
2015-Feb-07 14:33N 01°14' E 104°01'1110.7
2015-Feb-07 13:33N 01°16' E 103°50'0 0.4
2015-Feb-07 12:20N 01°16' E 103°50'0 0.0
2015-Feb-07 10:26N 01°16' E 103°50'0 0.1
2015-Feb-07 09:26N 01°16' E 103°50'0 0.0
2015-Feb-07 08:32N 01°16' E 103°50'0 0.0
2015-Feb-07 07:20N 01°16' E 103°50'0 0.1
2015-Feb-07 06:20N 01°16' E 103°50'0 0.0
2015-Feb-07 05:32N 01°16' E 103°50'0 0.0
2015-Feb-07 04:32N 01°16' E 103°50'0 0.1
2015-Feb-07 03:32N 01°16' E 103°50'0 0.0
2015-Feb-07 02:32N 01°16' E 103°50'0 0.1
2015-Feb-07 01:32N 01°16' E 103°50'0 0.1
2015-Feb-07 00:32N 01°16' E 103°50'0 0.1
2015-Feb-06 23:32N 01°16' E 103°50'0 0.0
2015-Feb-06 22:32N 01°16' E 103°50'0 0.0
2015-Feb-06 21:32N 01°16' E 103°50'0 0.0
2015-Feb-06 20:32N 01°16' E 103°50'0 0.1
2015-Feb-06 19:32N 01°16' E 103°50'0 0.1
2015-Feb-06 18:32N 01°16' E 103°50'0 0.1
2015-Feb-06 17:32N 01°16' E 103°50'0 0.0
2015-Feb-06 16:32N 01°16' E 103°50'0 0.0
2015-Feb-06 15:32N 01°16' E 103°50'0 0.0
2015-Feb-06 14:32N 01°16' E 103°50'0 0.1
2015-Feb-06 13:32N 01°16' E 103°50'0 0.1
2015-Feb-06 12:32N 01°16' E 103°50'0 0.0
2015-Feb-06 11:32N 01°16' E 103°50'0 0.1
2015-Feb-06 10:32N 01°16' E 103°50'0 0.0
2015-Feb-06 09:20N 01°16' E 103°50'0 0.0
2015-Feb-06 08:26N 01°16' E 103°50'0 0.1
2015-Feb-06 07:32N 01°16' E 103°50'0 0.0
2015-Feb-06 06:32N 01°16' E 103°50'0 0.0
2015-Feb-06 05:32N 01°16' E 103°50'0 0.1
2015-Feb-06 04:32N 01°16' E 103°50'0 0.1
2015-Feb-06 03:32N 01°16' E 103°50'1 0.6
2015-Feb-06 02:33N 01°16' E 103°51'3 2.6
2015-Feb-06 01:33N 01°14' E 103°53'5 4.6
2015-Feb-06 00:32N 01°15' E 103°57'1312.5
2015-Feb-05 23:32N 01°17' E 104°10'  
Track history (hours):
 
Tides and Currents Weather Stations Pressure Air Temp Water Temp Dewpoint Dewpoint Depression Visibility Wind Speed Wind Dir Waves Ship Positions

APL Norway

Last reported at 2015-Feb-13 19:13 UTC. Time now 2015-Mar-04 20:22 UTC.
Position N 24°58' E 120°45'.
Warning: this ship's position is 19 days out of date.

Length 295 m; draft 12.9 m.

Type: Cargo ship. MMSI: 636013456.

Date/timePositionNaut miles runAvg speedWind from/ knotsBaromVisibWave heightAir tempDewpointWater temp
2015-Feb-13 19:13N 24°58' E 120°45'1818.2
2015-Feb-13 18:12N 24°44' E 120°33'1218.3
2015-Feb-13 17:33N 24°34' E 120°25'2218.3
2015-Feb-13 16:22N 24°17' E 120°10'1518.5
2015-Feb-13 15:32N 24°05' E 120°00'1717.1
2015-Feb-13 14:32N 23°49' E 119°53'2317.5
2015-Feb-13 13:15N 23°26' E 119°53'1217.0
2015-Feb-13 12:32N 23°14' E 119°52'2317.4
2015-Feb-13 11:14N 22°52' E 119°59'1217.5
2015-Feb-13 10:33N 22°42' E 120°06'1414.2
2015-Feb-13 09:33N 22°33' E 120°18'2 1.5
2015-Feb-13 08:30N 22°34' E 120°19'0 0.0
2015-Feb-13 07:30N 22°34' E 120°19'0 0.0
2015-Feb-13 06:12N 22°34' E 120°19'0 0.0
2015-Feb-13 05:30N 22°34' E 120°19'0 0.0
2015-Feb-13 04:30N 22°34' E 120°19'0 0.0
2015-Feb-13 03:18N 22°34' E 120°19'0 0.0
2015-Feb-13 02:24N 22°34' E 120°19'0 0.0
2015-Feb-13 00:30N 22°34' E 120°19'0 0.0
2015-Feb-12 23:24N 22°34' E 120°19'0 0.0
2015-Feb-12 22:30N 22°34' E 120°19'0 0.0
2015-Feb-12 21:30N 22°34' E 120°19'0 0.0
2015-Feb-12 20:18N 22°34' E 120°19'0 0.0
2015-Feb-12 18:33N 22°34' E 120°19'6 5.9
2015-Feb-12 17:33N 22°32' E 120°13'1313.2
2015-Feb-12 16:33N 22°30' E 119°59'1818.4
2015-Feb-12 15:33N 22°29' E 119°39'1818.0
2015-Feb-12 14:33N 22°27' E 119°20'1817.8
2015-Feb-12 13:33N 22°25' E 119°00'4417.7
2015-Feb-12 11:05N 22°22' E 118°13'1018.2
2015-Feb-12 10:32N 22°21' E 118°03'1717.2
2015-Feb-12 09:33N 22°21' E 117°44'1817.6
2015-Feb-12 08:32N 22°21' E 117°25'15917.6
2015-Feb-11 23:29N 22°07' E 114°33'1717.4
2015-Feb-11 22:31N 22°07' E 114°15'1313.3
2015-Feb-11 21:33N 22°17' E 114°06'1110.4
2015-Feb-11 20:31N 22°21' E 113°55'7 0.5
2015-Feb-11 06:30N 22°28' E 113°53'0 0.0
2015-Feb-11 05:30N 22°28' E 113°53'0 0.0
2015-Feb-11 04:24N 22°28' E 113°53'0 0.0
2015-Feb-11 03:30N 22°28' E 113°53'0 0.0
2015-Feb-11 02:30N 22°28' E 113°53'0 0.0
2015-Feb-11 01:30N 22°28' E 113°53'0 0.1
2015-Feb-10 23:32N 22°28' E 113°53'15 7.7
2015-Feb-10 21:34N 22°19' E 114°06'1110.2
2015-Feb-10 20:31N 22°10' E 114°13'9 9.0
2015-Feb-10 19:33N 22°09' E 114°22'1313.0
2015-Feb-10 18:33N 21°56' E 114°23'  
2015-Feb-07 15:26N 01°16' E 104°16'1516.8
2015-Feb-07 14:33N 01°14' E 104°01'1110.7
2015-Feb-07 13:33N 01°16' E 103°50'0 0.4
2015-Feb-07 12:20N 01°16' E 103°50'0 0.0
2015-Feb-07 10:26N 01°16' E 103°50'0 0.1
2015-Feb-07 09:26N 01°16' E 103°50'0 0.0
2015-Feb-07 08:32N 01°16' E 103°50'0 0.0
2015-Feb-07 07:20N 01°16' E 103°50'0 0.1
2015-Feb-07 06:20N 01°16' E 103°50'0 0.0
2015-Feb-07 05:32N 01°16' E 103°50'0 0.0
2015-Feb-07 04:32N 01°16' E 103°50'0 0.1
2015-Feb-07 03:32N 01°16' E 103°50'0 0.0
2015-Feb-07 02:32N 01°16' E 103°50'0 0.1
2015-Feb-07 01:32N 01°16' E 103°50'0 0.1
2015-Feb-07 00:32N 01°16' E 103°50'0 0.1
2015-Feb-06 23:32N 01°16' E 103°50'0 0.0
2015-Feb-06 22:32N 01°16' E 103°50'0 0.0
2015-Feb-06 21:32N 01°16' E 103°50'0 0.0
2015-Feb-06 20:32N 01°16' E 103°50'0 0.1
2015-Feb-06 19:32N 01°16' E 103°50'0 0.1
2015-Feb-06 18:32N 01°16' E 103°50'0 0.1
2015-Feb-06 17:32N 01°16' E 103°50'0 0.0
2015-Feb-06 16:32N 01°16' E 103°50'0 0.0
2015-Feb-06 15:32N 01°16' E 103°50'0 0.0
2015-Feb-06 14:32N 01°16' E 103°50'0 0.1
2015-Feb-06 13:32N 01°16' E 103°50'0 0.1
2015-Feb-06 12:32N 01°16' E 103°50'0 0.0
2015-Feb-06 11:32N 01°16' E 103°50'0 0.1
2015-Feb-06 10:32N 01°16' E 103°50'0 0.0
2015-Feb-06 09:20N 01°16' E 103°50'0 0.0
2015-Feb-06 08:26N 01°16' E 103°50'0 0.1
2015-Feb-06 07:32N 01°16' E 103°50'0 0.0
2015-Feb-06 06:32N 01°16' E 103°50'0 0.0
2015-Feb-06 05:32N 01°16' E 103°50'0 0.1
2015-Feb-06 04:32N 01°16' E 103°50'0 0.1
2015-Feb-06 03:32N 01°16' E 103°50'1 0.6
2015-Feb-06 02:33N 01°16' E 103°51'3 2.6
2015-Feb-06 01:33N 01°14' E 103°53'5 4.6
2015-Feb-06 00:32N 01°15' E 103°57'1312.5
2015-Feb-05 23:32N 01°17' E 104°10'  

Dump ship's entire track history